createdAt,value
2018-09-21T00:02:32.666Z,7.73
2018-09-21T00:05:08.949Z,6.30
2018-09-21T00:07:44.437Z,6.33
2018-09-21T00:10:20.285Z,6.63
2018-09-21T00:12:55.924Z,5.77
2018-09-21T00:15:31.677Z,6.17
2018-09-21T00:18:07.319Z,6.07
2018-09-21T00:20:43.342Z,7.53
2018-09-21T00:23:18.842Z,6.30
2018-09-21T00:25:54.118Z,6.43
2018-09-21T00:28:30.396Z,8.10
2018-09-21T00:31:06.461Z,6.50
2018-09-21T00:33:42.170Z,6.17
2018-09-21T00:36:17.784Z,6.00
2018-09-21T00:38:52.761Z,7.40
2018-09-21T00:41:28.208Z,6.30
2018-09-21T00:44:05.065Z,6.40
2018-09-21T00:46:41.389Z,5.03
2018-09-21T00:49:16.614Z,5.57
2018-09-21T00:51:52.627Z,5.90
2018-09-21T00:54:28.277Z,6.13
2018-09-21T00:57:04.384Z,6.10
2018-09-21T00:59:41.076Z,5.13
2018-09-21T01:02:17.020Z,4.90
2018-09-21T01:04:52.478Z,5.83
2018-09-21T01:07:28.091Z,5.90
2018-09-21T01:10:03.785Z,5.77
2018-09-21T01:12:39.343Z,5.90
2018-09-21T01:15:15.164Z,5.63
2018-09-21T01:17:50.904Z,6.53
2018-09-21T01:20:26.597Z,6.57
2018-09-21T01:23:02.197Z,7.30
2018-09-21T01:25:37.980Z,7.63
2018-09-21T01:28:13.187Z,6.80
2018-09-21T01:30:49.292Z,7.43
2018-09-21T01:33:24.897Z,7.30
2018-09-21T01:36:00.680Z,7.47
2018-09-21T01:38:36.364Z,7.50
2018-09-21T01:41:12.122Z,7.20
2018-09-21T01:43:47.077Z,7.03
2018-09-21T01:46:23.125Z,6.63
2018-09-21T01:48:59.060Z,6.10
2018-09-21T01:51:34.526Z,7.10
2018-09-21T01:54:10.667Z,8.60
2018-09-21T01:56:46.964Z,9.47
2018-09-21T01:59:22.813Z,7.90
2018-09-21T02:01:59.155Z,8.67
2018-09-21T02:04:40.715Z,7.93
2018-09-21T02:07:16.601Z,9.03
2018-09-21T02:09:51.683Z,9.70
2018-09-21T02:12:27.196Z,10.10
2018-09-21T02:15:03.748Z,8.97
2018-09-21T02:17:38.740Z,8.30
2018-09-21T02:20:14.179Z,10.10
2018-09-21T02:22:50.329Z,9.37
2018-09-21T02:25:25.274Z,10.30
2018-09-21T02:28:01.334Z,10.03
2018-09-21T02:30:36.919Z,9.53
2018-09-21T02:33:12.727Z,8.53
2018-09-21T02:35:48.524Z,8.23
2018-09-21T02:38:23.684Z,9.70
2018-09-21T02:40:59.797Z,8.40
2018-09-21T02:43:35.339Z,7.57
2018-09-21T02:46:11.297Z,6.63
2018-09-21T02:48:46.855Z,6.10
2018-09-21T02:51:22.761Z,6.53
2018-09-21T02:53:58.321Z,6.53
2018-09-21T02:56:34.011Z,5.53
2018-09-21T02:59:09.171Z,5.80
2018-09-21T03:01:45.229Z,5.30
2018-09-21T03:04:20.840Z,5.47
2018-09-21T03:06:56.514Z,5.20
2018-09-21T03:09:32.450Z,4.97
2018-09-21T03:12:07.561Z,5.07
2018-09-21T03:14:43.456Z,4.30
2018-09-21T03:17:19.108Z,4.43
2018-09-21T03:19:54.287Z,4.60
2018-09-21T03:22:30.617Z,5.00
2018-09-21T03:25:06.205Z,4.37
2018-09-21T03:27:41.377Z,4.90
2018-09-21T03:30:17.625Z,4.83
2018-09-21T03:32:52.778Z,5.07
2018-09-21T03:35:29.053Z,4.30
2018-09-21T03:38:04.582Z,4.70
2018-09-21T03:40:40.076Z,4.43
2018-09-21T03:43:16.325Z,4.60
2018-09-21T03:45:51.844Z,4.80
2018-09-21T03:48:27.054Z,4.43
2018-09-21T03:51:03.076Z,4.83
2018-09-21T03:53:38.557Z,5.10
2018-09-21T03:56:14.444Z,5.17
2018-09-21T03:58:50.064Z,8.40
2018-09-21T04:01:25.954Z,5.10
2018-09-21T04:04:01.138Z,5.73
2018-09-21T04:06:36.416Z,5.20
2018-09-21T04:09:12.557Z,4.97
2018-09-21T04:11:48.169Z,5.23
2018-09-21T04:14:23.349Z,5.80
2018-09-21T04:16:59.441Z,5.57
2018-09-21T04:19:34.987Z,4.90
2018-09-21T04:22:10.376Z,4.93
2018-09-21T04:24:46.490Z,5.87
2018-09-21T04:27:22.090Z,5.67
2018-09-21T04:29:57.811Z,5.40
2018-09-21T04:32:33.785Z,4.57
2018-09-21T04:35:08.748Z,5.13
2018-09-21T04:37:44.375Z,5.00
2018-09-21T04:40:20.357Z,5.33
2018-09-21T04:42:55.494Z,6.47
2018-09-21T04:45:31.654Z,5.43
2018-09-21T04:48:07.449Z,5.97
2018-09-21T04:50:42.965Z,5.23
2018-09-21T04:53:18.816Z,5.67
2018-09-21T04:55:56.084Z,5.97
2018-09-21T04:58:31.453Z,5.60
2018-09-21T05:01:08.123Z,6.23
2018-09-21T05:03:43.240Z,6.83
2018-09-21T05:06:19.025Z,5.60
2018-09-21T05:08:54.029Z,5.80
2018-09-21T05:11:29.969Z,5.17
2018-09-21T05:14:05.799Z,5.50
2018-09-21T05:16:43.231Z,4.97
2018-09-21T05:19:18.667Z,5.93
2018-09-21T05:21:54.340Z,5.80
2018-09-21T05:24:30.874Z,5.40
2018-09-21T05:27:06.696Z,6.33
2018-09-21T05:29:42.600Z,5.93
2018-09-21T05:32:18.233Z,6.10
2018-09-21T05:34:53.905Z,6.07
2018-09-21T05:37:29.658Z,6.63
2018-09-21T05:40:05.212Z,6.90
2018-09-21T05:42:40.476Z,6.03
2018-09-21T05:45:16.109Z,5.73
2018-09-21T05:47:51.492Z,6.20
2018-09-21T05:50:28.460Z,6.87
2018-09-21T05:53:04.303Z,8.60
2018-09-21T05:55:39.817Z,7.77
2018-09-21T05:58:15.507Z,7.03
2018-09-21T06:00:51.033Z,7.83
2018-09-21T06:03:26.464Z,8.13
2018-09-21T06:06:02.340Z,7.90
2018-09-21T06:08:38.031Z,8.10
2018-09-21T06:11:13.354Z,8.03
2018-09-21T06:13:49.252Z,8.30
2018-09-21T06:16:24.908Z,8.13
2018-09-21T06:19:00.645Z,8.13
2018-09-21T06:21:35.904Z,7.77
2018-09-21T06:24:12.242Z,8.00
2018-09-21T06:26:47.989Z,9.57
2018-09-21T06:29:23.495Z,8.47
2018-09-21T06:31:59.781Z,8.50
2018-09-21T06:34:36.146Z,9.40
2018-09-21T06:37:11.608Z,8.13
2018-09-21T06:39:47.577Z,8.83
2018-09-21T06:42:23.199Z,9.07
2018-09-21T06:44:59.597Z,8.43
2018-09-21T06:47:35.365Z,9.20
2018-09-21T06:50:12.066Z,8.93
2018-09-21T06:52:48.009Z,9.57
2018-09-21T06:55:23.452Z,8.80
2018-09-21T06:58:00.010Z,10.10
2018-09-21T07:00:35.977Z,8.73
2018-09-21T07:03:11.306Z,7.83
2018-09-21T07:05:47.298Z,8.60
2018-09-21T07:08:22.965Z,8.10
2018-09-21T07:10:59.517Z,9.30
2018-09-21T07:13:35.193Z,7.90
2018-09-21T07:16:10.598Z,9.20
2018-09-21T07:18:46.323Z,8.20
2018-09-21T07:21:21.983Z,7.60
2018-09-21T07:23:57.912Z,8.40
2018-09-21T07:26:33.457Z,9.60
2018-09-21T07:29:09.167Z,8.60
2018-09-21T07:31:45.113Z,10.00
2018-09-21T07:34:20.533Z,10.10
2018-09-21T07:36:56.790Z,9.50
2018-09-21T07:39:32.266Z,10.10
2018-09-21T07:42:09.815Z,18.90
2018-09-21T07:44:45.559Z,9.63
2018-09-21T07:47:21.561Z,10.50
2018-09-21T07:49:57.246Z,10.00
2018-09-21T07:52:33.049Z,12.07
2018-09-21T07:55:08.650Z,10.90
2018-09-21T07:57:44.320Z,8.67
2018-09-21T08:00:19.894Z,9.80
2018-09-21T08:02:55.641Z,9.37
2018-09-21T08:05:35.098Z,12.67
2018-09-21T08:08:10.928Z,9.03
2018-09-21T08:10:46.687Z,8.60
2018-09-21T08:13:22.058Z,8.57
2018-09-21T08:15:57.375Z,7.80
2018-09-21T08:18:32.873Z,8.00
2018-09-21T08:21:08.830Z,9.13
2018-09-21T08:23:44.553Z,9.30
2018-09-21T08:26:20.294Z,8.20
2018-09-21T08:28:55.927Z,9.90
2018-09-21T08:31:31.317Z,9.43
2018-09-21T08:34:06.851Z,10.47
2018-09-21T08:36:42.352Z,10.60
2018-09-21T08:39:17.661Z,10.63
2018-09-21T08:41:53.720Z,9.70
2018-09-21T08:44:29.429Z,10.37
2018-09-21T08:47:04.969Z,11.30
2018-09-21T08:49:40.482Z,9.63
2018-09-21T08:52:16.443Z,9.70
2018-09-21T08:54:52.249Z,9.10
2018-09-21T08:57:28.053Z,9.40
2018-09-21T09:00:03.309Z,9.07
2018-09-21T09:02:39.688Z,9.87
2018-09-21T09:05:15.278Z,11.30
2018-09-21T09:07:50.861Z,10.10
2018-09-21T09:10:26.601Z,11.77
2018-09-21T09:13:02.110Z,9.70
2018-09-21T09:15:38.605Z,8.70
2018-09-21T09:18:14.862Z,8.90
2018-09-21T09:20:51.406Z,10.13
2018-09-21T09:23:26.779Z,9.47
2018-09-21T09:26:02.648Z,10.00
2018-09-21T09:28:38.231Z,9.20
2018-09-21T09:31:13.972Z,10.10
2018-09-21T09:33:49.830Z,10.10
2018-09-21T09:36:25.552Z,10.07
2018-09-21T09:39:01.940Z,10.10
2018-09-21T09:41:39.105Z,12.07
2018-09-21T09:44:15.685Z,10.23
2018-09-21T09:46:51.969Z,10.80
2018-09-21T09:49:27.472Z,10.60
2018-09-21T09:52:03.260Z,9.13
2018-09-21T09:54:38.697Z,9.50
2018-09-21T09:57:15.208Z,10.80
2018-09-21T09:59:51.077Z,9.30
2018-09-21T10:02:26.757Z,9.40
2018-09-21T10:05:03.229Z,9.80
2018-09-21T10:07:39.244Z,9.13
2018-09-21T10:10:14.532Z,8.93
2018-09-21T10:12:50.374Z,8.47
2018-09-21T10:15:26.033Z,8.40
2018-09-21T10:18:01.929Z,7.60
2018-09-21T10:20:40.231Z,8.43
2018-09-21T10:23:16.005Z,8.43
2018-09-21T10:25:51.809Z,7.97
2018-09-21T10:28:27.271Z,8.30
2018-09-21T10:31:03.096Z,8.00
2018-09-21T10:33:39.011Z,7.40
2018-09-21T10:36:14.720Z,7.50
2018-09-21T10:38:51.026Z,7.37
2018-09-21T10:41:26.501Z,7.97
2018-09-21T10:44:02.352Z,6.20
2018-09-21T10:46:38.137Z,7.10
2018-09-21T10:49:13.453Z,6.97
2018-09-21T10:51:49.364Z,7.07
2018-09-21T10:54:24.841Z,7.67
2018-09-21T10:56:59.948Z,8.80
2018-09-21T10:59:35.373Z,7.93
2018-09-21T11:02:11.721Z,8.30
2018-09-21T11:04:47.833Z,8.00
2018-09-21T11:07:23.511Z,8.80
2018-09-21T11:10:00.061Z,7.93
2018-09-21T11:12:35.864Z,8.10
2018-09-21T11:15:11.536Z,8.63
2018-09-21T11:17:47.324Z,7.57
2018-09-21T11:20:22.812Z,7.53
2018-09-21T11:22:59.406Z,7.90
2018-09-21T11:25:35.440Z,8.53
2018-09-21T11:28:10.737Z,8.40
2018-09-21T11:30:46.440Z,6.93
2018-09-21T11:33:22.241Z,7.63
2018-09-21T11:35:58.469Z,8.13
2018-09-21T11:38:34.687Z,7.90
2018-09-21T11:41:10.305Z,8.60
2018-09-21T11:43:45.325Z,8.00
2018-09-21T11:46:21.100Z,7.80
2018-09-21T11:48:57.159Z,8.43
2018-09-21T11:51:33.023Z,8.00
2018-09-21T11:54:08.313Z,7.03
2018-09-21T11:56:44.725Z,8.53
2018-09-21T11:59:20.960Z,6.70
2018-09-21T12:01:56.882Z,6.17
2018-09-21T12:04:32.830Z,6.80
2018-09-21T12:07:08.677Z,8.00
2018-09-21T12:09:44.511Z,7.30
2018-09-21T12:12:20.353Z,7.40
2018-09-21T12:14:55.752Z,6.70
2018-09-21T12:17:31.753Z,6.60
2018-09-21T12:20:07.247Z,7.03
2018-09-21T12:22:43.290Z,6.53
2018-09-21T12:25:18.469Z,6.90
2018-09-21T12:27:54.407Z,6.57
2018-09-21T12:30:30.122Z,6.67
2018-09-21T12:33:05.737Z,7.70
2018-09-21T12:35:41.420Z,7.10
2018-09-21T12:38:17.334Z,7.57
2018-09-21T12:40:52.801Z,6.77
2018-09-21T12:43:27.774Z,7.50
2018-09-21T12:46:04.177Z,7.30
2018-09-21T12:48:39.918Z,11.40
2018-09-21T12:51:15.277Z,6.90
2018-09-21T12:53:52.273Z,7.40
2018-09-21T12:56:28.438Z,8.03
2018-09-21T12:59:04.242Z,8.70
2018-09-21T13:01:39.834Z,7.83
2018-09-21T13:04:15.837Z,7.80
2018-09-21T13:06:51.521Z,8.37
2018-09-21T13:09:27.038Z,8.23
2018-09-21T13:12:02.797Z,7.50
2018-09-21T13:14:38.754Z,6.97
2018-09-21T13:17:14.691Z,6.87
2018-09-21T13:19:50.629Z,6.20
2018-09-21T13:22:26.452Z,5.60
2018-09-21T13:25:02.276Z,8.57
2018-09-21T13:27:37.737Z,5.60
2018-09-21T13:30:13.555Z,5.67
2018-09-21T13:32:49.761Z,6.43
2018-09-21T13:35:25.983Z,5.37
2018-09-21T13:38:01.688Z,5.27
2018-09-21T13:40:37.762Z,5.50
2018-09-21T13:43:13.114Z,4.80
2018-09-21T13:45:49.229Z,5.53
2018-09-21T13:48:25.445Z,5.70
2018-09-21T13:51:01.675Z,7.50
2018-09-21T13:53:37.521Z,4.97
2018-09-21T13:56:13.372Z,5.70
2018-09-21T13:58:49.046Z,5.00
2018-09-21T14:01:24.686Z,5.20
2018-09-21T14:04:00.449Z,4.93
2018-09-21T14:06:36.001Z,6.63
2018-09-21T14:09:11.773Z,6.47
2018-09-21T14:11:47.514Z,5.83
2018-09-21T14:14:22.636Z,6.00
2018-09-21T14:16:58.640Z,6.00
2018-09-21T14:19:34.266Z,7.10
2018-09-21T14:22:09.940Z,9.90
2018-09-21T14:24:45.749Z,6.90
2018-09-21T14:27:20.900Z,7.90
2018-09-21T14:29:56.116Z,9.97
2018-09-21T14:32:31.483Z,12.33
2018-09-21T14:35:06.541Z,14.17
2018-09-21T14:37:42.072Z,13.30
2018-09-21T14:40:18.042Z,13.07
2018-09-21T14:42:53.360Z,12.83
2018-09-21T14:45:28.727Z,14.10
2018-09-21T14:48:04.455Z,12.93
2018-09-21T14:50:40.130Z,13.33
2018-09-21T14:53:16.311Z,13.20
2018-09-21T14:55:51.308Z,14.33
2018-09-21T14:58:27.723Z,13.63
2018-09-21T15:01:02.915Z,12.70
2018-09-21T15:03:38.362Z,13.80
2018-09-21T15:06:14.631Z,13.93
2018-09-21T15:08:49.584Z,13.70
2018-09-21T15:11:25.333Z,13.50
2018-09-21T15:14:00.820Z,15.20
2018-09-21T15:16:36.604Z,14.10
2018-09-21T15:19:12.369Z,15.13
2018-09-21T15:21:47.468Z,14.43
2018-09-21T15:24:23.309Z,14.93
2018-09-21T15:26:58.772Z,13.63
2018-09-21T15:29:35.004Z,15.50
2018-09-21T15:32:10.208Z,16.23
2018-09-21T15:34:46.160Z,16.00
2018-09-21T15:37:21.908Z,17.07
2018-09-21T15:39:57.765Z,18.07
2018-09-21T15:42:33.076Z,19.00
2018-09-21T15:45:08.793Z,16.47
2018-09-21T15:47:44.844Z,16.30
2018-09-21T15:50:20.458Z,16.00
2018-09-21T15:52:55.293Z,16.70
2018-09-21T15:55:32.260Z,18.53
2018-09-21T15:58:07.814Z,16.03
2018-09-21T16:00:43.502Z,17.57
2018-09-21T16:03:19.317Z,16.75
2018-09-21T16:05:55.041Z,17.43
2018-09-21T16:08:30.607Z,16.90
2018-09-21T16:11:06.040Z,18.47
2018-09-21T16:13:41.516Z,19.63
2018-09-21T16:16:17.237Z,17.40
2018-09-21T16:18:52.392Z,18.10
2018-09-21T16:21:27.889Z,17.83
2018-09-21T16:24:03.509Z,16.93
2018-09-21T16:26:39.188Z,18.07
2018-09-21T16:29:15.109Z,17.23
2018-09-21T16:31:50.672Z,17.90
2018-09-21T16:34:25.862Z,17.50
2018-09-21T16:37:00.765Z,17.40
2018-09-21T16:39:36.350Z,19.00
2018-09-21T16:42:12.476Z,17.17
2018-09-21T16:44:47.524Z,19.40
2018-09-21T16:47:23.144Z,18.17
2018-09-21T16:49:59.576Z,18.90
2018-09-21T16:52:34.894Z,18.03
2018-09-21T16:55:09.629Z,19.23
2018-09-21T16:57:45.487Z,20.47
2018-09-21T17:00:21.846Z,19.23
2018-09-21T17:02:56.810Z,20.20
2018-09-21T17:05:32.465Z,22.00
2018-09-21T17:08:08.531Z,20.07
2018-09-21T17:10:43.536Z,17.60
2018-09-21T17:13:19.218Z,17.73
2018-09-21T17:15:55.037Z,19.30
2018-09-21T17:18:30.524Z,19.23
2018-09-21T17:21:06.245Z,19.00
2018-09-21T17:23:40.798Z,18.90
2018-09-21T17:26:15.604Z,19.70
2018-09-21T17:28:52.412Z,19.80
2018-09-21T17:31:27.919Z,18.53
2018-09-21T17:34:03.848Z,20.00
2018-09-21T17:36:39.016Z,20.27
2018-09-21T17:39:15.232Z,19.73
2018-09-21T17:41:50.340Z,19.43
2018-09-21T17:44:25.985Z,19.73
2018-09-21T17:47:01.667Z,18.43
2018-09-21T17:49:37.273Z,17.93
2018-09-21T17:52:14.310Z,18.90
2018-09-21T17:54:49.669Z,18.43
2018-09-21T17:57:25.230Z,17.77
2018-09-21T18:00:01.213Z,17.77
2018-09-21T18:02:36.337Z,18.50
2018-09-21T18:05:12.156Z,17.63
2018-09-21T18:07:48.220Z,21.77
2018-09-21T18:10:23.292Z,22.90
2018-09-21T18:12:59.192Z,26.90
2018-09-21T18:15:34.316Z,23.90
2018-09-21T18:18:10.009Z,19.77
2018-09-21T18:20:45.692Z,19.63
2018-09-21T18:23:22.055Z,21.73
2018-09-21T18:25:56.849Z,21.63
2018-09-21T18:28:32.809Z,27.43
2018-09-21T18:31:08.276Z,19.70
2018-09-21T18:33:43.909Z,20.03
2018-09-21T18:36:19.903Z,19.23
2018-09-21T18:38:55.218Z,19.53
2018-09-21T18:41:31.209Z,18.33
2018-09-21T18:44:06.574Z,20.03
2018-09-21T18:46:42.744Z,20.47
2018-09-21T18:49:18.313Z,20.67
2018-09-21T18:51:53.442Z,17.70
2018-09-21T18:54:29.298Z,19.13
2018-09-21T18:57:04.797Z,18.80
2018-09-21T18:59:40.407Z,19.30
2018-09-21T19:02:15.925Z,19.53
2018-09-21T19:04:51.901Z,20.77
2018-09-21T19:07:31.365Z,20.70
2018-09-21T19:10:06.897Z,20.40
2018-09-21T19:12:42.376Z,22.10
2018-09-21T19:15:17.980Z,20.80
2018-09-21T19:17:52.875Z,17.40
2018-09-21T19:20:28.685Z,19.00
2018-09-21T19:23:04.137Z,19.70
2018-09-21T19:25:39.833Z,16.37
2018-09-21T19:28:16.080Z,18.00
2018-09-21T19:30:51.967Z,17.13
2018-09-21T19:33:27.769Z,15.67
2018-09-21T19:36:03.207Z,16.60
2018-09-21T19:38:38.882Z,16.87
2018-09-21T19:41:14.494Z,15.60
2018-09-21T19:43:50.912Z,16.13
2018-09-21T19:46:27.328Z,15.30
2018-09-21T19:49:02.985Z,15.53
2018-09-21T19:51:38.576Z,14.80
2018-09-21T19:54:14.274Z,14.90
2018-09-21T19:56:49.718Z,14.77
2018-09-21T19:59:25.549Z,14.50
2018-09-21T20:02:00.949Z,14.40
2018-09-21T20:04:36.604Z,14.77
2018-09-21T20:07:12.886Z,13.80
2018-09-21T20:09:48.475Z,15.60
2018-09-21T20:12:23.516Z,13.83
2018-09-21T20:14:58.994Z,13.70
2018-09-21T20:17:34.605Z,13.73
2018-09-21T20:20:10.745Z,14.70
2018-09-21T20:22:46.257Z,13.53
2018-09-21T20:25:22.238Z,15.80
2018-09-21T20:27:57.910Z,16.80
2018-09-21T20:30:38.151Z,14.80
2018-09-21T20:33:19.407Z,15.10
2018-09-21T20:35:54.432Z,14.97
2018-09-21T20:38:30.261Z,14.30
2018-09-21T20:41:05.908Z,14.30
2018-09-21T20:43:42.165Z,14.50
2018-09-21T20:46:17.747Z,16.47
2018-09-21T20:48:53.415Z,16.00
2018-09-21T20:51:28.921Z,16.43
2018-09-21T20:54:04.380Z,14.50
2018-09-21T20:56:40.008Z,14.77
2018-09-21T20:59:14.831Z,14.53
2018-09-21T21:01:51.217Z,16.40
2018-09-21T21:04:28.016Z,18.00
2018-09-21T21:07:03.603Z,15.10
2018-09-21T21:09:38.881Z,13.60
2018-09-21T21:12:14.670Z,15.80
2018-09-21T21:14:51.361Z,15.17
2018-09-21T21:17:26.460Z,14.60
2018-09-21T21:20:02.398Z,13.27
2018-09-21T21:22:37.528Z,14.30
2018-09-21T21:25:14.128Z,13.47
2018-09-21T21:27:49.849Z,14.10
2018-09-21T21:30:25.267Z,13.30
2018-09-21T21:33:00.743Z,15.53
2018-09-21T21:35:36.941Z,14.20
2018-09-21T21:38:12.487Z,14.67
2018-09-21T21:40:48.194Z,14.43
2018-09-21T21:43:24.003Z,14.37
2018-09-21T21:45:59.853Z,13.30
2018-09-21T21:48:35.089Z,13.70
2018-09-21T21:51:11.346Z,14.30
2018-09-21T21:53:47.201Z,15.47
2018-09-21T21:56:22.741Z,14.77
2018-09-21T21:58:58.341Z,16.00
2018-09-21T22:01:39.111Z,16.20
2018-09-21T22:04:15.461Z,17.30
2018-09-21T22:06:51.178Z,16.73
2018-09-21T22:09:26.856Z,16.40
2018-09-21T22:12:07.585Z,16.70
2018-09-21T22:14:43.771Z,17.97
2018-09-21T22:17:19.717Z,16.73
2018-09-21T22:19:55.652Z,15.13
2018-09-21T22:22:31.450Z,16.27
2018-09-21T22:25:06.684Z,17.03
2018-09-21T22:27:42.522Z,16.40
2018-09-21T22:30:18.145Z,17.20
2018-09-21T22:32:53.733Z,15.37
2018-09-21T22:35:29.558Z,19.17
2018-09-21T22:38:04.488Z,16.70
2018-09-21T22:40:40.157Z,18.50
2018-09-21T22:43:16.441Z,17.03
2018-09-21T22:45:52.037Z,18.27
2018-09-21T22:48:28.157Z,16.40
2018-09-21T22:51:04.457Z,22.10
2018-09-21T22:53:40.079Z,17.67
2018-09-21T22:56:15.876Z,19.70
2018-09-21T22:58:50.652Z,19.20
2018-09-21T23:01:26.576Z,18.80
2018-09-21T23:04:01.971Z,15.90
2018-09-21T23:06:37.734Z,15.53
2018-09-21T23:09:13.808Z,16.83
2018-09-21T23:11:49.016Z,19.93
2018-09-21T23:14:24.596Z,16.10
2018-09-21T23:17:00.240Z,17.53
2018-09-21T23:19:36.197Z,17.00
2018-09-21T23:22:12.041Z,18.60
2018-09-21T23:24:47.763Z,17.40
2018-09-21T23:27:23.504Z,16.30
2018-09-21T23:29:58.574Z,18.10
2018-09-21T23:32:34.716Z,16.90
2018-09-21T23:35:09.987Z,17.00
2018-09-21T23:37:45.794Z,15.50
2018-09-21T23:40:21.785Z,17.10
2018-09-21T23:42:57.562Z,16.33
2018-09-21T23:45:32.787Z,16.60
2018-09-21T23:48:08.447Z,17.50
2018-09-21T23:50:44.332Z,18.07
2018-09-21T23:53:19.692Z,17.97
2018-09-21T23:55:55.330Z,19.53
2018-09-21T23:58:31.765Z,17.83
